Time;durP1;ratioP1;P1;durP2;ratioP2;P2;SDS_P1;SDS_P2;PMS_P1;PMS_P2;Temp;Humidity;BMP_temperature;BMP_pressure;BME280_temperature;BME280_humidity;BME280_pressure;Samples;Min_cycle;Max_cycle;Signal;HPM_P1;HPM_P2
2022/05/29 00:00:46;;;;;;;4.90;2.43;;;10.70;99.90;;;;;;5015943;28;20270;-91
2022/05/29 00:03:12;;;;;;;3.53;2.37;;;10.80;99.90;;;;;;5015669;28;20186;-91
2022/05/29 00:05:39;;;;;;;3.43;2.27;;;10.80;99.90;;;;;;5015372;28;20204;-91
2022/05/29 00:08:06;;;;;;;10.17;2.90;;;10.80;99.90;;;;;;5015852;28;20269;-91
2022/05/29 00:10:37;;;;;;;4.27;2.37;;;10.70;99.90;;;;;;5015938;28;20178;-91
2022/05/29 00:13:03;;;;;;;4.20;2.40;;;10.70;99.90;;;;;;5015727;28;20171;-91
2022/05/29 00:15:29;;;;;;;6.43;2.60;;;10.70;99.90;;;;;;5015476;28;20175;-91
2022/05/29 00:17:55;;;;;;;4.47;2.17;;;10.70;99.90;;;;;;5015506;28;20186;-91
2022/05/29 00:20:21;;;;;;;3.60;2.40;;;10.70;99.90;;;;;;5015884;28;20191;-91
2022/05/29 00:22:47;;;;;;;3.67;2.50;;;10.70;99.90;;;;;;5015862;28;20193;-91
2022/05/29 00:25:13;;;;;;;5.03;2.73;;;10.70;99.90;;;;;;5006552;28;20194;-91
2022/05/29 00:27:39;;;;;;;3.47;2.40;;;10.70;99.90;;;;;;5012535;28;20171;-91
2022/05/29 00:30:08;;;;;;;3.33;2.43;;;10.70;99.90;;;;;;5012052;28;20206;-92
2022/05/29 00:32:34;;;;;;;3.47;2.30;;;10.70;99.90;;;;;;5012281;28;20187;-91
2022/05/29 00:35:00;;;;;;;4.17;2.50;;;10.80;99.90;;;;;;5011811;28;20188;-91
2022/05/29 00:37:30;;;;;;;3.43;2.80;;;10.80;99.90;;;;;;5012361;28;20179;-91
2022/05/29 00:39:56;;;;;;;3.80;3.00;;;10.90;99.90;;;;;;5012002;28;20227;-91
2022/05/29 00:42:25;;;;;;;3.40;2.37;;;10.80;99.90;;;;;;4995770;28;20218;-91
2022/05/29 00:44:51;;;;;;;3.93;2.10;;;10.70;99.90;;;;;;5012042;28;20187;-91
2022/05/29 00:47:19;;;;;;;3.37;2.10;;;10.70;99.90;;;;;;5012098;28;20274;-91
2022/05/29 00:49:48;;;;;;;6.07;2.50;;;10.60;99.90;;;;;;5013643;28;20211;-91
2022/05/29 00:52:27;;;;;;;3.47;2.20;;;10.60;99.90;;;;;;5015569;28;20179;-91
2022/05/29 00:55:10;;;;;;;3.07;2.23;;;10.50;99.90;;;;;;5015702;28;20185;-91
2022/05/29 00:57:42;;;;;;;4.53;2.20;;;10.60;99.90;;;;;;5016046;28;20176;-91
2022/05/29 01:00:18;;;;;;;3.53;2.00;;;10.60;99.90;;;;;;4999213;28;20203;-91
2022/05/29 01:02:45;;;;;;;4.23;2.70;;;10.50;99.90;;;;;;5015882;28;20175;-91
2022/05/29 01:05:14;;;;;;;3.60;2.20;;;10.40;99.90;;;;;;5015390;28;20223;-91
2022/05/29 01:08:03;;;;;;;4.10;2.37;;;10.40;99.90;;;;;;5015484;28;20179;-91
2022/05/29 01:10:54;;;;;;;3.73;2.40;;;10.40;99.90;;;;;;5015461;28;20209;-91
2022/05/29 01:13:50;;;;;;;5.47;2.43;;;10.40;99.90;;;;;;5015774;28;20210;-91
2022/05/29 01:16:44;;;;;;;3.20;2.50;;;10.30;99.90;;;;;;4974726;28;20191;-91
2022/05/29 01:19:59;;;;;;;4.13;2.27;;;10.30;99.90;;;;;;4999000;28;20257;-91
2022/05/29 01:22:46;;;;;;;3.37;1.97;;;10.30;99.90;;;;;;4982235;28;20194;-91
2022/05/29 01:25:38;;;;;;;8.40;2.73;;;10.30;99.90;;;;;;4998964;28;20167;-91
2022/05/29 01:28:04;;;;;;;4.43;2.40;;;10.20;99.90;;;;;;5015577;28;20182;-91
2022/05/29 01:30:53;;;;;;;4.07;2.77;;;10.20;99.90;;;;;;4999212;28;20183;-91
2022/05/29 01:33:28;;;;;;;5.33;2.60;;;10.20;99.90;;;;;;4998041;28;20210;-91
2022/05/29 01:36:06;;;;;;;2.63;2.07;;;10.10;99.90;;;;;;4998292;28;20202;-91
2022/05/29 01:38:39;;;;;;;5.60;2.43;;;10.10;99.90;;;;;;4998494;28;20201;-91
2022/05/29 01:41:21;;;;;;;3.73;2.80;;;10.20;99.90;;;;;;4998949;28;20175;-91
2022/05/29 01:43:53;;;;;;;3.90;2.70;;;10.20;99.90;;;;;;4998735;28;20184;-91
2022/05/29 01:46:24;;;;;;;4.57;2.40;;;10.20;99.90;;;;;;5015112;28;20245;-92
2022/05/29 01:49:28;;;;;;;4.53;2.10;;;10.20;99.90;;;;;;4998381;28;20238;-92
2022/05/29 01:52:06;;;;;;;3.87;2.30;;;10.20;99.90;;;;;;5015198;28;20179;-91
2022/05/29 01:54:38;;;;;;;2.17;1.90;;;10.20;99.90;;;;;;4998412;28;20179;-92
2022/05/29 01:57:10;;;;;;;3.60;2.37;;;10.20;99.90;;;;;;4998635;28;20271;-91
2022/05/29 01:59:42;;;;;;;2.83;2.30;;;10.20;99.90;;;;;;5014526;28;20285;-91
2022/05/29 02:02:13;;;;;;;4.73;2.60;;;10.20;99.90;;;;;;4997258;28;20187;-92
2022/05/29 02:04:44;;;;;;;3.50;2.20;;;10.30;99.90;;;;;;4998003;28;20194;-91
2022/05/29 02:10:18;;;;;;;3.53;2.27;;;10.20;99.90;;;;;;5014532;28;20222;-92
2022/05/29 02:13:20;;;;;;;4.57;2.03;;;10.10;99.90;;;;;;4997960;28;20186;-92
2022/05/29 02:16:04;;;;;;;3.30;2.40;;;10.00;99.90;;;;;;5014184;28;20282;-91
2022/05/29 02:18:45;;;;;;;3.00;2.17;;;9.90;99.90;;;;;;5014507;28;20202;-91
2022/05/29 02:21:17;;;;;;;2.83;2.10;;;9.80;99.90;;;;;;4998260;28;20171;-92
2022/05/29 02:23:48;;;;;;;2.73;1.97;;;9.80;99.90;;;;;;4997958;28;20183;-90
2022/05/29 02:26:18;;;;;;;2.57;2.03;;;9.60;99.90;;;;;;4998064;28;20197;-91
2022/05/29 02:28:49;;;;;;;6.63;2.03;;;9.60;99.90;;;;;;4997789;28;20289;-91
2022/05/29 02:31:38;;;;;;;3.33;2.47;;;9.60;99.90;;;;;;4997788;28;20187;-92
2022/05/29 02:34:13;;;;;;;4.47;2.63;;;9.60;99.90;;;;;;5013715;28;20171;-91
2022/05/29 02:36:52;;;;;;;2.37;2.10;;;9.70;99.90;;;;;;4997562;28;20206;-92
2022/05/29 02:39:43;;;;;;;2.77;1.90;;;9.70;99.90;;;;;;4997325;28;20325;-91
2022/05/29 02:42:14;;;;;;;2.43;2.00;;;9.70;99.90;;;;;;4997651;28;20205;-91
2022/05/29 02:44:57;;;;;;;3.27;2.10;;;9.80;99.90;;;;;;4997335;28;20180;-91
2022/05/29 02:47:54;;;;;;;3.73;2.37;;;9.90;99.90;;;;;;4997438;28;20194;-91
2022/05/29 04:00:32;;;;;;;4.13;2.47;;;9.70;99.90;;;;;;5978170;23;20234;-30
2022/05/29 04:02:58;;;;;;;3.70;1.93;;;9.60;99.90;;;;;;5028986;28;20179;-27
2022/05/29 04:05:25;;;;;;;2.50;2.30;;;9.50;99.90;;;;;;5011886;28;20182;-27
2022/05/29 04:13:24;;;;;;;3.67;2.40;;;9.30;99.90;;;;;;5030051;28;20182;-28
2022/05/29 04:15:50;;;;;;;3.57;2.20;;;9.30;99.90;;;;;;5012651;28;20232;-29
2022/05/29 04:18:18;;;;;;;4.03;1.90;;;9.20;99.90;;;;;;5013103;28;20179;-29
2022/05/29 04:20:45;;;;;;;4.27;2.50;;;9.20;99.90;;;;;;5012893;28;20199;-29
2022/05/29 04:23:12;;;;;;;2.70;2.23;;;9.10;99.90;;;;;;5030926;28;20205;-29
2022/05/29 04:25:38;;;;;;;2.23;2.00;;;9.00;99.90;;;;;;5016083;28;20225;-28
2022/05/29 04:28:07;;;;;;;5.07;2.40;;;9.00;99.90;;;;;;5016923;28;20182;-29
2022/05/29 04:30:32;;;;;;;3.83;2.13;;;9.00;99.90;;;;;;5016731;28;20198;-30
2022/05/29 04:33:01;;;;;;;3.40;2.13;;;9.10;99.90;;;;;;5033375;28;20175;-30
2022/05/29 04:35:39;;;;;;;4.20;2.67;;;9.10;99.90;;;;;;5033028;28;20251;-30
2022/05/29 04:38:06;;;;;;;3.50;2.20;;;9.20;99.90;;;;;;5033334;28;20182;-30
2022/05/29 04:40:32;;;;;;;4.27;2.27;;;9.20;99.90;;;;;;5016847;28;20311;-29
2022/05/29 04:42:58;;;;;;;3.00;2.67;;;9.20;99.90;;;;;;5016471;28;20190;-29
2022/05/29 04:45:24;;;;;;;3.40;2.23;;;9.20;99.90;;;;;;5016797;28;20208;-28
2022/05/29 04:47:50;;;;;;;3.83;2.50;;;9.30;99.90;;;;;;5016685;28;20230;-29
2022/05/29 04:50:17;;;;;;;4.03;2.30;;;9.30;99.90;;;;;;5016599;28;20216;-29
2022/05/29 04:52:43;;;;;;;6.43;2.40;;;9.20;99.90;;;;;;5033093;28;20179;-30
2022/05/29 04:55:09;;;;;;;3.60;2.00;;;9.20;99.90;;;;;;5032676;28;20213;-30
2022/05/29 04:57:35;;;;;;;4.93;2.20;;;9.30;99.90;;;;;;5034149;28;20175;-31
2022/05/29 05:00:01;;;;;;;4.57;2.40;;;9.20;99.90;;;;;;5034108;28;20183;-30
2022/05/29 05:02:27;;;;;;;3.80;2.40;;;9.00;99.90;;;;;;5016388;28;20214;-29
2022/05/29 05:04:53;;;;;;;4.30;1.93;;;9.00;99.90;;;;;;5032677;28;20233;-31
2022/05/29 05:07:19;;;;;;;3.83;2.10;;;9.10;99.90;;;;;;5032748;28;20269;-30
2022/05/29 05:09:46;;;;;;;3.13;2.13;;;9.10;99.90;;;;;;5033962;28;20387;-30
2022/05/29 05:12:12;;;;;;;4.00;2.57;;;9.20;99.90;;;;;;5033681;28;20269;-30
2022/05/29 05:14:38;;;;;;;4.67;2.37;;;9.30;99.90;;;;;;5033868;28;20721;-30
2022/05/29 05:17:04;;;;;;;4.63;2.27;;;9.30;99.90;;;;;;5016256;28;20277;-29
2022/05/29 05:19:30;;;;;;;4.13;2.33;;;9.60;99.90;;;;;;5016031;28;20220;-30
2022/05/29 05:21:59;;;;;;;4.17;2.70;;;9.70;99.90;;;;;;5032570;28;20226;-28
2022/05/29 05:24:25;;;;;;;3.30;2.47;;;9.80;99.90;;;;;;5030203;28;20273;-30
2022/05/29 05:26:50;;;;;;;2.20;2.00;;;9.90;99.90;;;;;;5012895;28;20258;-28
2022/05/29 05:29:16;;;;;;;3.40;2.00;;;9.90;99.90;;;;;;5012739;28;20214;-29
2022/05/29 05:31:42;;;;;;;3.20;2.10;;;10.10;99.90;;;;;;5013861;28;20197;-28
2022/05/29 05:34:08;;;;;;;2.53;2.23;;;10.20;99.90;;;;;;5012342;28;20303;-29
2022/05/29 05:36:34;;;;;;;2.43;2.20;;;10.50;99.90;;;;;;5012329;28;20194;-27
2022/05/29 05:39:00;;;;;;;3.63;2.00;;;10.60;99.90;;;;;;5012242;28;20187;-28
2022/05/29 05:41:26;;;;;;;4.70;2.33;;;10.70;99.90;;;;;;5012123;28;20205;-29
2022/05/29 05:43:52;;;;;;;2.60;2.13;;;10.80;99.90;;;;;;5012257;28;20640;-28
2022/05/29 05:46:18;;;;;;;3.93;2.20;;;10.80;99.90;;;;;;4995905;28;20238;-28
2022/05/29 05:48:45;;;;;;;3.37;2.50;;;10.80;99.90;;;;;;5012169;28;20207;-28
2022/05/29 05:51:12;;;;;;;2.50;2.30;;;10.90;99.90;;;;;;5012166;28;20238;-30
2022/05/29 05:53:40;;;;;;;5.43;2.27;;;10.90;99.90;;;;;;5012144;28;20172;-29
2022/05/29 05:56:10;;;;;;;3.97;2.30;;;11.10;99.90;;;;;;5027901;28;20187;-29
2022/05/29 05:58:37;;;;;;;3.90;2.27;;;11.20;99.90;;;;;;5015408;28;20290;-29
2022/05/29 06:01:09;;;;;;;5.10;2.77;;;11.20;99.90;;;;;;5031578;28;20218;-29
2022/05/29 06:03:35;;;;;;;3.47;2.30;;;11.30;99.90;;;;;;5015183;28;20179;-30
2022/05/29 06:06:01;;;;;;;6.20;2.50;;;11.50;99.90;;;;;;5015132;28;20184;-29
2022/05/29 06:08:27;;;;;;;2.50;2.00;;;11.60;99.90;;;;;;5014798;28;20218;-29
2022/05/29 06:10:53;;;;;;;3.80;2.27;;;11.80;99.90;;;;;;5031766;28;20210;-28
2022/05/29 06:13:19;;;;;;;3.97;2.10;;;12.00;99.90;;;;;;5015160;28;20175;-29
2022/05/29 06:15:46;;;;;;;2.23;2.03;;;12.10;99.90;;;;;;5031432;28;20210;-28
2022/05/29 06:18:13;;;;;;;2.67;2.10;;;12.20;99.90;;;;;;5031419;28;20207;-30
2022/05/29 06:20:39;;;;;;;4.83;2.40;;;12.40;99.90;;;;;;5031488;28;20195;-29
2022/05/29 06:23:05;;;;;;;2.93;2.07;;;12.60;99.90;;;;;;5031331;28;20205;-29
2022/05/29 06:25:31;;;;;;;6.03;2.30;;;12.70;99.90;;;;;;5014729;28;20197;-30
2022/05/29 06:27:57;;;;;;;2.87;2.10;;;12.70;99.90;;;;;;5014801;28;20217;-30
2022/05/29 06:30:23;;;;;;;4.60;2.50;;;12.80;99.90;;;;;;5031017;28;20243;-29
2022/05/29 06:32:49;;;;;;;2.63;2.20;;;12.90;99.90;;;;;;5031182;28;20169;-29
2022/05/29 06:35:15;;;;;;;5.70;2.33;;;12.80;99.90;;;;;;5032247;28;20173;-28
2022/05/29 06:37:42;;;;;;;5.63;2.20;;;12.80;99.90;;;;;;5014504;28;20224;-29
2022/05/29 06:40:09;;;;;;;4.13;2.10;;;12.90;99.90;;;;;;5030892;28;20238;-29
2022/05/29 06:42:35;;;;;;;4.23;2.47;;;13.10;99.90;;;;;;5014039;28;20183;-28
2022/05/29 06:45:02;;;;;;;7.03;2.30;;;13.30;99.90;;;;;;5014319;28;20200;-27
2022/05/29 06:47:28;;;;;;;3.70;2.50;;;13.40;99.90;;;;;;5030320;28;20249;-30
2022/05/29 06:49:54;;;;;;;5.73;2.20;;;13.50;99.90;;;;;;5030648;28;20208;-29
2022/05/29 06:52:20;;;;;;;3.87;1.93;;;13.60;99.90;;;;;;5014138;28;20200;-28
2022/05/29 06:54:46;;;;;;;3.70;2.03;;;13.60;99.90;;;;;;5030556;28;20184;-30
2022/05/29 06:57:36;;;;;;;3.33;2.10;;;13.50;99.90;;;;;;5030732;28;20223;-28
2022/05/29 07:08:05;;;;;;;3.73;2.50;;;13.20;99.90;;;;;;5031969;28;20179;-27
2022/05/29 07:10:33;;;;;;;4.20;2.37;;;13.10;99.90;;;;;;5014160;28;20204;-27
2022/05/29 07:13:01;;;;;;;2.47;1.90;;;13.10;99.90;;;;;;5013744;28;20208;-29
2022/05/29 07:15:27;;;;;;;3.23;1.93;;;13.10;99.90;;;;;;5030073;28;20187;-29
2022/05/29 07:17:53;;;;;;;2.93;1.80;;;13.20;99.90;;;;;;5013728;28;20191;-28
2022/05/29 07:20:19;;;;;;;4.27;2.13;;;13.10;99.90;;;;;;5013586;28;20181;-30
2022/05/29 07:22:45;;;;;;;3.57;2.13;;;13.00;99.90;;;;;;5031565;28;20203;-29
2022/05/29 07:25:12;;;;;;;3.83;1.90;;;13.10;99.90;;;;;;5013453;28;20192;-29
2022/05/29 07:27:38;;;;;;;4.40;2.40;;;13.30;99.90;;;;;;5013529;28;20319;-28
2022/05/29 07:30:06;;;;;;;3.30;1.73;;;13.30;99.90;;;;;;5029983;28;20206;-28
2022/05/29 07:32:32;;;;;;;3.70;1.83;;;13.30;99.90;;;;;;5030281;28;20661;-30
2022/05/29 07:34:59;;;;;;;4.23;2.07;;;13.10;99.90;;;;;;5029829;28;20184;-29
2022/05/29 07:37:26;;;;;;;4.13;1.90;;;13.20;99.90;;;;;;5030013;28;20172;-29
2022/05/29 07:39:53;;;;;;;4.77;2.03;;;13.50;99.90;;;;;;5031300;28;20200;-29
2022/05/29 07:45:05;;;;;;;4.00;1.87;;;13.50;99.90;;;;;;5029612;28;20191;-31
2022/05/29 07:47:41;;;;;;;5.47;2.30;;;13.50;99.90;;;;;;5013681;28;20556;-29
2022/05/29 07:50:10;;;;;;;4.60;1.90;;;13.60;99.90;;;;;;5029381;28;20219;-29
2022/05/29 07:52:36;;;;;;;3.63;1.67;;;13.80;99.90;;;;;;5013363;28;20176;-28
2022/05/29 07:55:02;;;;;;;3.40;1.60;;;14.10;99.90;;;;;;5029317;28;20185;-28
2022/05/29 07:57:28;;;;;;;5.20;1.70;;;14.50;99.90;;;;;;5029755;28;20220;-30
2022/05/29 07:59:54;;;;;;;4.77;1.80;;;14.90;99.90;;;;;;5028767;28;20174;-29
2022/05/29 08:02:20;;;;;;;2.40;1.50;;;15.30;99.90;;;;;;5013177;28;20214;-28
2022/05/29 08:04:46;;;;;;;2.33;1.80;;;15.80;99.90;;;;;;5012966;28;20178;-28
2022/05/29 08:07:15;;;;;;;2.40;1.40;;;15.80;99.90;;;;;;5012787;28;20186;-28
2022/05/29 08:09:41;;;;;;;4.27;1.80;;;16.00;99.90;;;;;;5012937;28;20214;-28
2022/05/29 08:12:08;;;;;;;3.60;1.70;;;16.40;99.90;;;;;;5029724;28;20194;-28
2022/05/29 08:14:34;;;;;;;2.47;1.60;;;16.80;99.90;;;;;;5029509;28;20205;-30
2022/05/29 08:17:00;;;;;;;2.63;1.70;;;17.20;99.90;;;;;;5029407;28;20650;-29
2022/05/29 08:19:26;;;;;;;3.20;1.53;;;17.40;99.90;;;;;;5012950;28;20252;-28
2022/05/29 08:21:52;;;;;;;4.17;1.90;;;17.50;99.90;;;;;;5029247;28;20198;-29
2022/05/29 08:32:38;;;;;;;4.73;1.30;;;16.80;99.90;;;;;;5030856;28;20175;-29
2022/05/29 08:35:04;;;;;;;3.27;2.13;;;16.50;99.90;;;;;;5030153;28;20177;-29
2022/05/29 08:37:30;;;;;;;5.77;1.90;;;16.20;99.90;;;;;;5029577;28;20182;-28
2022/05/29 08:39:56;;;;;;;7.50;2.10;;;15.60;99.90;;;;;;5012796;28;20187;-29
2022/05/29 08:42:28;;;;;;;3.57;1.90;;;14.60;99.90;;;;;;5029137;28;20202;-29
2022/05/29 08:44:55;;;;;;;4.53;1.90;;;13.90;99.90;;;;;;5030590;28;20240;-27
2022/05/29 08:47:31;;;;;;;4.67;1.87;;;13.50;99.90;;;;;;5012689;28;20197;-29
2022/05/29 08:49:58;;;;;;;4.90;1.83;;;13.50;99.90;;;;;;5013143;28;20236;-29
2022/05/29 08:52:38;;;;;;;5.37;2.43;;;13.30;99.90;;;;;;5012876;28;20216;-28
2022/05/29 08:55:28;;;;;;;3.63;1.80;;;13.10;99.90;;;;;;5028250;28;20197;-30
2022/05/29 08:58:13;;;;;;;7.97;2.20;;;13.00;99.90;;;;;;5012748;28;20187;-29
2022/05/29 09:01:08;;;;;;;5.87;2.20;;;12.80;99.90;;;;;;5029086;28;20199;-28
2022/05/29 09:03:35;;;;;;;6.60;2.37;;;12.40;99.90;;;;;;5029215;28;20237;-33
2022/05/29 09:06:09;;;;;;;5.20;2.40;;;12.30;99.90;;;;;;5012402;28;20180;-28
2022/05/29 09:08:59;;;;;;;5.23;2.20;;;12.00;99.90;;;;;;5029086;28;20210;-29
2022/05/29 09:11:47;;;;;;;3.93;2.03;;;11.90;99.90;;;;;;5026440;28;20211;-29
2022/05/29 09:14:22;;;;;;;3.67;2.17;;;11.70;99.90;;;;;;5032258;28;20231;-29
2022/05/29 09:17:00;;;;;;;5.27;2.13;;;11.60;99.90;;;;;;5016407;28;20178;-28
2022/05/29 09:19:42;;;;;;;4.87;2.00;;;11.60;99.90;;;;;;5016129;28;20182;-29
2022/05/29 09:22:28;;;;;;;5.40;2.00;;;11.50;99.90;;;;;;5032296;28;20213;-29
2022/05/29 09:25:28;;;;;;;6.93;2.30;;;11.40;99.90;;;;;;5032594;28;20233;-29
2022/05/29 09:27:54;;;;;;;4.00;2.20;;;11.20;99.90;;;;;;5016075;28;20193;-27
2022/05/29 09:30:20;;;;;;;4.67;2.33;;;11.00;99.90;;;;;;5031800;28;20627;-30
2022/05/29 09:33:02;;;;;;;4.73;2.37;;;11.20;99.90;;;;;;5032162;28;20186;-29
2022/05/29 09:35:52;;;;;;;4.03;1.73;;;11.30;99.90;;;;;;5032254;28;20604;-28
2022/05/29 09:39:00;;;;;;;3.53;1.60;;;11.50;99.90;;;;;;5032230;28;20186;-30
2022/05/29 09:41:31;;;;;;;2.73;1.50;;;12.00;99.90;;;;;;5032021;28;20229;-28
2022/05/29 09:44:14;;;;;;;3.60;1.37;;;12.50;99.90;;;;;;5015475;28;20183;-29
2022/05/29 09:46:51;;;;;;;4.83;1.57;;;12.90;99.90;;;;;;5031959;28;20183;-27
2022/05/29 09:49:41;;;;;;;1.80;1.20;;;13.30;99.90;;;;;;5032073;28;20270;-28
2022/05/29 09:52:21;;;;;;;1.40;1.30;;;13.30;99.90;;;;;;5031892;28;20197;-28
2022/05/29 09:54:57;;;;;;;2.77;1.40;;;13.50;99.90;;;;;;5015232;28;20180;-29
2022/05/29 09:57:26;;;;;;;3.20;1.33;;;13.60;99.90;;;;;;5031918;28;20185;-29
2022/05/29 10:00:09;;;;;;;3.37;1.60;;;14.00;99.90;;;;;;5033033;28;20253;-30
2022/05/29 10:02:46;;;;;;;2.60;1.50;;;14.20;99.90;;;;;;5015309;28;20677;-28
2022/05/29 10:05:24;;;;;;;3.67;1.53;;;14.20;99.90;;;;;;5031836;28;20579;-28
2022/05/29 10:07:52;;;;;;;2.40;1.30;;;14.10;99.90;;;;;;5015142;28;20189;-29
2022/05/29 10:10:31;;;;;;;2.40;1.10;;;13.90;99.90;;;;;;5014866;28;20237;-28
2022/05/29 10:12:59;;;;;;;1.87;1.10;;;13.80;99.90;;;;;;5015904;28;20659;-29
2022/05/29 10:15:25;;;;;;;2.03;1.20;;;13.90;99.90;;;;;;5031587;28;20226;-29
2022/05/29 10:17:52;;;;;;;3.00;1.10;;;14.00;99.90;;;;;;5031283;28;20178;-29
2022/05/29 10:20:36;;;;;;;1.77;1.10;;;14.10;99.90;;;;;;5031552;28;20183;-29
2022/05/29 10:23:32;;;;;;;1.33;1.00;;;14.60;99.90;;;;;;5030654;28;20275;-29
2022/05/29 10:26:03;;;;;;;1.77;1.10;;;14.60;99.90;;;;;;5026824;28;20261;-30
2022/05/29 10:28:34;;;;;;;1.57;1.43;;;15.00;99.90;;;;;;5032459;28;20209;-29
2022/05/29 10:31:21;;;;;;;2.30;1.20;;;15.10;99.90;;;;;;5030817;28;20635;-29
2022/05/29 10:34:11;;;;;;;2.07;1.40;;;15.00;99.90;;;;;;5030549;28;20604;-29
2022/05/29 10:36:38;;;;;;;2.43;1.30;;;15.60;99.90;;;;;;5032546;28;20167;-30
2022/05/29 10:39:11;;;;;;;2.10;1.60;;;15.40;99.90;;;;;;5014497;28;20187;-29
2022/05/29 10:41:41;;;;;;;3.17;1.60;;;15.20;99.90;;;;;;5031084;28;20355;-30
2022/05/29 10:44:10;;;;;;;3.07;1.40;;;14.50;99.90;;;;;;5014383;28;20185;-30
2022/05/29 10:46:44;;;;;;;2.50;1.43;;;14.60;99.90;;;;;;5030810;28;20658;-29
2022/05/29 10:49:28;;;;;;;1.47;1.03;;;14.40;99.90;;;;;;5014352;28;20202;-29
2022/05/29 10:52:11;;;;;;;1.77;1.20;;;14.40;99.90;;;;;;5032291;28;20294;-28
2022/05/29 10:54:55;;;;;;;1.97;0.90;;;14.40;99.90;;;;;;5016449;28;20218;-29
2022/05/29 10:57:45;;;;;;;1.63;1.10;;;14.30;99.90;;;;;;5031552;28;20670;-30
2022/05/29 11:00:46;;;;;;;1.47;1.00;;;14.20;99.90;;;;;;5015914;28;20669;-30
2022/05/29 11:03:48;;;;;;;1.80;1.20;;;14.40;99.90;;;;;;4994815;28;20194;-30
2022/05/29 11:06:30;;;;;;;1.30;1.10;;;14.50;99.90;;;;;;5031359;28;20197;-30
2022/05/29 11:09:41;;;;;;;1.70;1.40;;;14.70;99.90;;;;;;5018141;28;20292;-29
2022/05/29 11:12:28;;;;;;;1.93;0.90;;;15.40;99.90;;;;;;5015879;28;20215;-30
2022/05/29 11:15:17;;;;;;;1.10;0.90;;;15.40;99.90;;;;;;5014331;28;20179;-31
2022/05/29 11:17:56;;;;;;;1.00;1.00;;;15.60;99.90;;;;;;5015372;28;20246;-31
2022/05/29 11:20:34;;;;;;;2.67;1.07;;;16.10;99.90;;;;;;5027945;28;20721;-30
2022/05/29 11:23:25;;;;;;;2.93;1.30;;;16.30;99.90;;;;;;5025223;28;20171;-30
2022/05/29 11:26:11;;;;;;;1.57;1.03;;;16.40;99.90;;;;;;5015155;28;20178;-31
2022/05/29 11:28:56;;;;;;;1.23;1.00;;;16.20;99.90;;;;;;5008916;28;20301;-29
2022/05/29 11:31:55;;;;;;;1.70;1.10;;;15.80;99.90;;;;;;5021635;28;20207;-30
2022/05/29 11:34:41;;;;;;;2.10;1.00;;;16.10;99.90;;;;;;4970258;28;20189;-31
2022/05/29 11:37:41;;;;;;;2.47;1.00;;;16.40;99.90;;;;;;5006558;28;20201;-30
2022/05/29 11:40:20;;;;;;;1.77;1.20;;;16.20;99.90;;;;;;5021509;28;20178;-31
2022/05/29 11:42:47;;;;;;;1.63;0.87;;;16.30;99.90;;;;;;5001828;28;20221;-31
2022/05/29 11:51:07;;;;;;;2.77;1.00;;;16.20;99.90;;;;;;5021290;28;20202;-30
2022/05/29 11:51:18;;;;;;;1.23;0.80;;;16.00;99.90;;;;;;5026320;28;20210;-30
2022/05/29 11:53:50;;;;;;;1.00;0.80;;;16.20;99.90;;;;;;5015965;28;20210;-32
2022/05/29 11:56:45;;;;;;;3.70;1.00;;;16.40;99.90;;;;;;5017564;28;20190;-30
2022/05/29 11:59:44;;;;;;;2.37;1.07;;;16.90;99.90;;;;;;5019402;28;20233;-30
2022/05/29 12:02:49;;;;;;;3.13;1.05;;;17.30;99.90;;;;;;5018877;28;20224;-30
2022/05/29 12:05:41;;;;;;;1.92;1.13;;;17.60;99.70;;;;;;4978239;28;20213;-30
2022/05/29 12:08:33;;;;;;;1.63;1.10;;;18.10;99.90;;;;;;5026009;28;20189;-30
2022/05/29 12:11:18;;;;;;;2.28;1.05;;;18.50;98.70;;;;;;5023728;28;20217;-30
2022/05/29 12:13:59;;;;;;;1.50;1.00;;;18.90;97.30;;;;;;5006102;28;20179;-30
2022/05/29 12:16:31;;;;;;;1.20;0.90;;;18.70;97.70;;;;;;5017240;28;20206;-30
2022/05/29 12:19:01;;;;;;;1.58;1.00;;;18.80;97.10;;;;;;5021032;28;20182;-31
2022/05/29 12:21:45;;;;;;;1.15;1.00;;;19.10;96.10;;;;;;5005985;28;20199;-30
2022/05/29 12:24:17;;;;;;;1.10;0.80;;;19.30;95.10;;;;;;5007518;28;20181;-30
2022/05/29 12:26:52;;;;;;;2.55;1.10;;;19.50;96.20;;;;;;5006231;28;20214;-30
2022/05/29 12:29:27;;;;;;;1.00;0.90;;;19.30;96.20;;;;;;5025112;28;20660;-30
2022/05/29 12:31:59;;;;;;;2.65;0.80;;;19.30;96.40;;;;;;5056137;23;20230;-32
2022/05/29 12:34:40;;;;;;;1.50;1.00;;;19.30;96.20;;;;;;4969328;28;20271;-34
2022/05/29 12:37:23;;;;;;;1.70;1.00;;;19.00;95.80;;;;;;4954670;28;20326;-32
2022/05/29 12:40:27;;;;;;;1.92;1.08;;;18.50;98.70;;;;;;4957263;28;20187;-32
2022/05/29 12:43:02;;;;;;;2.60;1.20;;;18.20;99.90;;;;;;4988904;28;20275;-33
2022/05/29 12:45:27;;;;;;;9.77;1.42;;;18.00;99.90;;;;;;5014197;23;20229;-88
2022/05/29 12:48:19;;;;;;;2.35;1.27;;;17.90;99.90;;;;;;4983133;28;20183;-88
2022/05/29 12:51:23;;;;;;;1.52;1.05;;;17.70;99.90;;;;;;4930043;28;20208;-90
2022/05/29 12:53:58;;;;;;;3.17;1.40;;;17.70;99.90;;;;;;4983785;28;20184;-90
2022/05/29 12:56:56;;;;;;;1.55;1.13;;;18.00;99.90;;;;;;4953356;28;20184;-91
2022/05/29 13:02:45;;;;;;;1.10;1.00;;;18.70;99.80;;;;;;4960392;28;20185;-90
2022/05/29 13:05:26;;;;;;;2.05;0.93;;;18.40;99.90;;;;;;4970516;28;20270;-90
2022/05/29 13:08:25;;;;;;;3.05;1.10;;;18.20;99.90;;;;;;4944245;28;20176;-90
2022/05/29 13:10:53;;;;;;;2.10;1.17;;;18.10;99.90;;;;;;4944286;28;20244;-90
2022/05/29 13:13:46;;;;;;;1.42;0.98;;;18.00;99.90;;;;;;4960214;28;20187;-90
2022/05/29 13:16:38;;;;;;;1.40;0.98;;;18.00;99.90;;;;;;4963147;28;20242;-90
2022/05/29 13:19:21;;;;;;;2.25;1.33;;;18.10;99.90;;;;;;4953901;28;20180;-90
2022/05/29 13:22:01;;;;;;;2.42;1.23;;;18.10;99.90;;;;;;4951488;28;20235;-90
2022/05/29 13:24:59;;;;;;;2.10;1.10;;;18.00;99.90;;;;;;4946450;28;20181;-90
2022/05/29 13:27:26;;;;;;;2.67;1.23;;;17.90;99.90;;;;;;4963224;28;20253;-90
2022/05/29 13:29:58;;;;;;;2.08;1.27;;;17.90;99.90;;;;;;4959689;28;20219;-89
2022/05/29 13:32:27;;;;;;;3.65;1.42;;;17.80;99.90;;;;;;4949666;28;20190;-90
2022/05/29 13:35:02;;;;;;;3.15;1.33;;;17.80;99.90;;;;;;4943368;28;20183;-90
2022/05/29 13:37:43;;;;;;;3.03;1.50;;;17.70;99.90;;;;;;4950833;28;20180;-90
2022/05/29 13:40:30;;;;;;;1.80;1.10;;;17.70;99.90;;;;;;4943423;28;20698;-90
2022/05/29 13:43:25;;;;;;;3.72;1.30;;;17.50;99.90;;;;;;4959233;28;20188;-90
2022/05/29 13:45:56;;;;;;;2.50;1.40;;;17.60;99.90;;;;;;4959099;28;20196;-91
2022/05/29 13:48:30;;;;;;;1.90;1.40;;;17.60;99.90;;;;;;4978742;28;20263;-90
2022/05/29 13:51:11;;;;;;;3.60;1.30;;;17.70;99.90;;;;;;4962132;28;20294;-89
2022/05/29 13:54:24;;;;;;;3.27;1.53;;;17.40;99.90;;;;;;4962218;28;20176;-90
2022/05/29 13:56:53;;;;;;;3.63;1.25;;;17.30;99.90;;;;;;4959655;28;20180;-90
2022/05/29 14:05:19;;;;;;;3.10;1.30;;;17.30;99.90;;;;;;4975394;28;20180;-90
2022/05/29 14:08:19;;;;;;;2.73;1.20;;;17.20;99.90;;;;;;4959192;28;20183;-90
2022/05/29 14:11:00;;;;;;;3.22;1.45;;;16.90;99.90;;;;;;4958634;28;20224;-90
2022/05/29 14:13:47;;;;;;;2.88;1.30;;;16.80;99.90;;;;;;4954227;28;20184;-90
2022/05/29 14:16:28;;;;;;;2.42;1.23;;;17.10;99.90;;;;;;4959174;28;20687;-89
2022/05/29 14:19:02;;;;;;;2.63;1.38;;;17.50;99.90;;;;;;4958779;28;20242;-90
2022/05/29 14:21:54;;;;;;;2.22;1.40;;;17.50;99.90;;;;;;4959094;28;20165;-90
2022/05/29 14:24:52;;;;;;;3.00;1.30;;;17.80;99.90;;;;;;4948206;28;20197;-90
2022/05/29 14:28:02;;;;;;;1.98;1.00;;;18.00;99.90;;;;;;4958638;28;20538;-90
2022/05/29 14:30:47;;;;;;;2.70;1.40;;;18.30;99.90;;;;;;4958398;28;20216;-90
2022/05/29 14:33:38;;;;;;;1.95;1.30;;;18.60;99.90;;;;;;4958655;28;20157;-90
2022/05/29 14:36:16;;;;;;;1.98;1.30;;;18.30;99.90;;;;;;4958230;28;20184;-89
2022/05/29 14:39:23;;;;;;;1.95;1.20;;;18.70;99.90;;;;;;4958833;28;20177;-90
2022/05/29 14:41:59;;;;;;;1.35;1.20;;;19.20;99.70;;;;;;4974017;28;20196;-90
2022/05/29 14:44:46;;;;;;;1.95;1.30;;;19.60;98.80;;;;;;4957886;28;20247;-90
2022/05/29 14:47:38;;;;;;;2.00;1.05;;;19.70;98.20;;;;;;4958489;28;20169;-90
2022/05/29 14:50:18;;;;;;;2.72;1.20;;;19.20;98.90;;;;;;4958439;28;20219;-90
2022/05/29 14:52:48;;;;;;;2.70;1.40;;;19.00;98.40;;;;;;4958870;28;20613;-90
2022/05/29 14:55:23;;;;;;;1.52;1.17;;;18.70;98.80;;;;;;4963911;28;20185;-89
2022/05/29 14:57:56;;;;;;;1.55;1.10;;;18.40;98.50;;;;;;4958454;28;20183;-91
2022/05/29 15:00:27;;;;;;;1.80;1.15;;;18.20;98.40;;;;;;4942594;28;20204;-90
2022/05/29 15:02:56;;;;;;;1.80;1.30;;;18.00;98.50;;;;;;4942272;28;20226;-90
2022/05/29 15:05:23;;;;;;;2.65;1.40;;;17.60;99.30;;;;;;4941627;28;20271;-90
2022/05/29 15:10:43;;;;;;;2.83;1.13;;;17.40;99.90;;;;;;4958287;28;20223;-90
2022/05/29 15:13:08;;;;;;;2.17;1.48;;;17.10;99.90;;;;;;4942629;28;20199;-90
2022/05/29 15:15:40;;;;;;;4.03;1.85;;;16.70;99.90;;;;;;4941935;28;20207;-91
2022/05/29 15:18:28;;;;;;;4.55;1.50;;;16.60;99.90;;;;;;4957936;28;20192;-91
2022/05/29 15:24:12;;;;;;;3.40;1.83;;;16.40;99.90;;;;;;4957858;28;20180;-91
2022/05/29 15:26:54;;;;;;;2.30;1.53;;;16.40;99.90;;;;;;4942035;28;20184;-90